Time;durP1;ratioP1;P1;durP2;ratioP2;P2;SDS_P1;SDS_P2;PMS_P1;PMS_P2;Temp;Humidity;BMP_temperature;BMP_pressure;BME280_temperature;BME280_humidity;BME280_pressure;Samples;Min_cycle;Max_cycle;Signal;HPM_P1;HPM_P2
2022/04/10 00:02:18;;;;;;;6.07;2.00;;;5.60;99.90;;;;;;5053204;28;20580;-57
2022/04/10 00:04:45;;;;;;;5.23;1.90;;;5.60;99.90;;;;;;5053513;28;20210;-57
2022/04/10 00:07:12;;;;;;;5.30;2.10;;;5.50;99.90;;;;;;5053325;28;20244;-57
2022/04/10 00:09:40;;;;;;;5.20;2.10;;;5.50;99.90;;;;;;5053294;28;20225;-57
2022/04/10 00:12:08;;;;;;;3.60;2.13;;;5.40;99.90;;;;;;5053258;28;20216;-57
2022/04/10 00:14:34;;;;;;;5.63;2.20;;;5.40;99.90;;;;;;5053182;28;20206;-57
2022/04/10 00:17:01;;;;;;;5.00;2.07;;;5.40;99.90;;;;;;5053230;28;20209;-57
2022/04/10 00:19:28;;;;;;;2.97;2.03;;;5.40;99.90;;;;;;5053237;28;20250;-57
2022/04/10 00:21:55;;;;;;;3.67;1.80;;;5.40;99.90;;;;;;5052723;28;20210;-57
2022/04/10 00:24:25;;;;;;;2.70;1.70;;;5.50;99.90;;;;;;5053241;28;20559;-58
2022/04/10 00:26:53;;;;;;;5.07;2.47;;;5.60;99.90;;;;;;5052815;28;20665;-58
2022/04/10 00:29:20;;;;;;;6.57;2.10;;;5.60;99.90;;;;;;5052954;28;20646;-57
2022/04/10 00:31:47;;;;;;;4.73;2.03;;;5.60;99.90;;;;;;5053083;28;20210;-57
2022/04/10 00:34:14;;;;;;;3.77;2.10;;;5.70;99.90;;;;;;5052969;28;20622;-57
2022/04/10 00:36:40;;;;;;;5.00;2.00;;;5.70;99.90;;;;;;5053062;28;20264;-57
2022/04/10 00:39:07;;;;;;;3.60;2.20;;;5.60;99.90;;;;;;5052937;28;20201;-55
2022/04/10 00:41:34;;;;;;;4.47;2.20;;;5.60;99.90;;;;;;5052893;28;20296;-57
2022/04/10 00:44:10;;;;;;;8.27;2.77;;;5.50;99.90;;;;;;5053008;28;20674;-56
2022/04/10 00:46:37;;;;;;;4.63;2.53;;;5.50;99.90;;;;;;5053374;28;20206;-56
2022/04/10 00:49:05;;;;;;;6.53;2.57;;;5.50;99.90;;;;;;5053288;28;20641;-57
2022/04/10 00:51:41;;;;;;;5.47;2.10;;;5.40;99.90;;;;;;5052647;28;20232;-55
2022/04/10 00:54:10;;;;;;;6.00;2.40;;;5.40;99.90;;;;;;5054355;28;20236;-56
2022/04/10 00:56:37;;;;;;;3.67;2.10;;;5.40;99.90;;;;;;5052959;28;20229;-56
2022/04/10 00:59:03;;;;;;;6.47;2.37;;;5.40;99.90;;;;;;5053243;28;20701;-55
2022/04/10 01:01:32;;;;;;;5.27;2.30;;;5.40;99.90;;;;;;5052713;28;20205;-55
2022/04/10 01:03:58;;;;;;;4.17;2.23;;;5.40;99.90;;;;;;5053111;28;20212;-56
2022/04/10 01:06:26;;;;;;;3.33;2.37;;;5.50;99.90;;;;;;5052967;28;20228;-56
2022/04/10 01:08:53;;;;;;;5.83;2.50;;;5.50;99.90;;;;;;5053153;28;20592;-56
2022/04/10 01:11:19;;;;;;;4.53;2.30;;;5.60;99.90;;;;;;5052289;28;20229;-56
2022/04/10 01:13:46;;;;;;;5.47;2.40;;;5.60;99.90;;;;;;5052302;28;20205;-56
2022/04/10 01:16:13;;;;;;;5.20;2.30;;;5.60;99.90;;;;;;5052884;28;20899;-56
2022/04/10 01:18:42;;;;;;;3.80;2.33;;;5.60;99.90;;;;;;5052643;28;20209;-56
2022/04/10 01:21:12;;;;;;;5.60;2.53;;;5.60;99.90;;;;;;5052365;28;20225;-56
2022/04/10 01:23:43;;;;;;;4.20;2.37;;;5.60;99.90;;;;;;5052532;28;20232;-56
2022/04/10 01:26:10;;;;;;;4.57;2.20;;;5.60;99.90;;;;;;5052503;28;20609;-55
2022/04/10 01:28:37;;;;;;;4.10;2.37;;;5.50;99.90;;;;;;5052375;28;20213;-56
2022/04/10 01:31:03;;;;;;;5.37;2.73;;;5.50;99.90;;;;;;5052366;28;20605;-56
2022/04/10 01:33:30;;;;;;;4.07;2.00;;;5.60;99.90;;;;;;5052089;28;20233;-56
2022/04/10 01:35:57;;;;;;;3.60;2.10;;;5.70;99.90;;;;;;5052145;28;20627;-57
2022/04/10 01:38:24;;;;;;;6.67;2.53;;;5.90;99.90;;;;;;5051928;28;20316;-56
2022/04/10 01:40:52;;;;;;;3.33;2.53;;;6.00;99.90;;;;;;5075448;22;20234;-55
2022/04/10 01:43:18;;;;;;;4.73;2.50;;;6.10;99.90;;;;;;5051280;28;20210;-54
2022/04/10 01:45:45;;;;;;;4.93;2.40;;;6.10;99.90;;;;;;5052197;28;20201;-54
2022/04/10 01:48:12;;;;;;;4.13;2.57;;;6.20;99.90;;;;;;5051946;28;20244;-56
2022/04/10 01:50:38;;;;;;;3.27;2.40;;;6.30;99.90;;;;;;5051705;28;20279;-55
2022/04/10 01:53:05;;;;;;;5.23;2.50;;;6.40;99.90;;;;;;5051607;28;20205;-55
2022/04/10 01:55:32;;;;;;;4.43;2.37;;;6.40;99.90;;;;;;5051612;28;20229;-55
2022/04/10 01:58:00;;;;;;;5.30;2.33;;;6.50;99.90;;;;;;5052000;28;20210;-55
2022/04/10 02:00:27;;;;;;;3.20;2.30;;;6.60;99.90;;;;;;5051741;28;20260;-54
2022/04/10 02:02:53;;;;;;;5.50;2.80;;;6.60;99.90;;;;;;5051564;28;20206;-55
2022/04/10 02:05:20;;;;;;;2.80;2.40;;;6.60;99.90;;;;;;5051738;28;20206;-56
2022/04/10 02:07:47;;;;;;;3.93;2.63;;;6.60;99.90;;;;;;5051695;28;20251;-55
2022/04/10 02:10:14;;;;;;;5.63;2.90;;;6.60;99.90;;;;;;5051436;28;20287;-55
2022/04/10 02:12:40;;;;;;;6.07;3.10;;;6.60;99.90;;;;;;5051529;28;20206;-56
2022/04/10 02:15:08;;;;;;;4.93;2.90;;;6.60;99.90;;;;;;5051762;28;20206;-55
2022/04/10 02:17:35;;;;;;;4.63;3.30;;;6.40;99.90;;;;;;5051400;28;20201;-55
2022/04/10 02:20:02;;;;;;;5.40;2.63;;;6.40;99.90;;;;;;5051577;28;20787;-55
2022/04/10 02:22:28;;;;;;;6.13;3.00;;;6.30;99.90;;;;;;5051245;28;20731;-56
2022/04/10 02:24:55;;;;;;;5.47;3.40;;;6.30;99.90;;;;;;5053942;28;20205;-54
2022/04/10 02:27:22;;;;;;;5.03;3.10;;;6.20;99.90;;;;;;5055223;28;20717;-55
2022/04/10 02:29:48;;;;;;;4.20;2.90;;;6.20;99.90;;;;;;5055273;28;20228;-58
2022/04/10 02:32:16;;;;;;;5.67;3.13;;;6.10;99.90;;;;;;5054949;28;20255;-58
2022/04/10 02:34:43;;;;;;;5.80;3.30;;;6.00;99.90;;;;;;5055124;28;20589;-58
2022/04/10 02:37:10;;;;;;;5.23;3.20;;;5.90;99.90;;;;;;5054851;28;20225;-58
2022/04/10 02:39:37;;;;;;;4.10;3.03;;;5.70;99.90;;;;;;5054929;28;20240;-58
2022/04/10 02:42:04;;;;;;;4.80;3.37;;;5.60;99.90;;;;;;5054957;28;20202;-59
2022/04/10 02:44:31;;;;;;;6.63;3.33;;;5.50;99.90;;;;;;5055319;28;20205;-59
2022/04/10 02:46:57;;;;;;;5.00;3.27;;;5.40;99.90;;;;;;5054845;28;20202;-58
2022/04/10 02:49:25;;;;;;;5.53;3.40;;;5.30;99.90;;;;;;5054739;28;20201;-58
2022/04/10 02:51:52;;;;;;;4.57;3.10;;;5.20;99.90;;;;;;5054488;28;20398;-58
2022/04/10 02:54:19;;;;;;;4.03;3.10;;;5.20;99.90;;;;;;5054943;28;20213;-58
2022/04/10 02:56:45;;;;;;;7.20;3.03;;;5.10;99.90;;;;;;5054663;28;20280;-57
2022/04/10 02:59:12;;;;;;;6.33;3.40;;;5.00;99.90;;;;;;5054848;28;20202;-58
2022/04/10 03:01:39;;;;;;;6.17;2.80;;;4.90;99.90;;;;;;5054246;28;20233;-56
2022/04/10 03:04:05;;;;;;;7.97;2.87;;;4.90;99.90;;;;;;5054603;28;20216;-58
2022/04/10 03:06:33;;;;;;;4.03;3.07;;;4.90;99.90;;;;;;5054399;28;20235;-59
2022/04/10 03:09:00;;;;;;;5.27;2.97;;;4.80;99.90;;;;;;5054612;28;20284;-57
2022/04/10 03:11:27;;;;;;;4.97;2.93;;;4.70;99.90;;;;;;5054398;28;20236;-58
2022/04/10 03:13:53;;;;;;;6.17;2.93;;;4.70;99.90;;;;;;5054310;28;20292;-59
2022/04/10 03:16:20;;;;;;;7.40;3.57;;;4.60;99.90;;;;;;5054226;28;20232;-58
2022/04/10 03:18:47;;;;;;;6.40;4.47;;;4.60;99.90;;;;;;5054277;28;20209;-58
2022/04/10 03:21:13;;;;;;;7.47;4.67;;;4.50;99.90;;;;;;5054143;28;20712;-58
2022/04/10 03:23:41;;;;;;;5.20;3.00;;;4.50;99.90;;;;;;5054129;28;20669;-57
2022/04/10 03:26:08;;;;;;;7.07;3.07;;;4.50;99.90;;;;;;5054012;28;20572;-59
2022/04/10 03:28:34;;;;;;;5.27;2.77;;;4.40;99.90;;;;;;5054069;28;20267;-58
2022/04/10 03:31:01;;;;;;;5.93;2.70;;;4.40;99.90;;;;;;5053989;28;20628;-58
2022/04/10 03:33:28;;;;;;;3.87;2.80;;;4.40;99.90;;;;;;5053863;28;20214;-58
2022/04/10 03:35:55;;;;;;;4.63;3.17;;;4.40;99.90;;;;;;5053353;28;20221;-57
2022/04/10 03:38:22;;;;;;;6.53;2.93;;;4.30;99.90;;;;;;5054011;28;20212;-58
2022/04/10 03:40:50;;;;;;;5.60;3.30;;;4.30;99.90;;;;;;5053724;28;20233;-58
2022/04/10 03:43:17;;;;;;;9.77;4.00;;;4.20;99.90;;;;;;5053562;28;20213;-58
2022/04/10 03:45:43;;;;;;;8.10;3.50;;;4.20;99.90;;;;;;5053779;28;20214;-57
2022/04/10 03:48:10;;;;;;;4.23;2.97;;;4.20;99.90;;;;;;5053661;28;20206;-58
2022/04/10 03:50:37;;;;;;;5.80;3.40;;;4.10;99.90;;;;;;5053782;28;20222;-59
2022/04/10 03:53:05;;;;;;;5.13;3.00;;;4.10;99.90;;;;;;5053333;28;20675;-58
2022/04/10 03:55:32;;;;;;;4.37;2.57;;;4.10;99.90;;;;;;5053674;28;20216;-59
2022/04/10 03:58:00;;;;;;;5.70;3.03;;;4.00;99.90;;;;;;5053512;28;20231;-58
2022/04/10 04:00:27;;;;;;;4.27;3.20;;;4.00;99.90;;;;;;5053483;28;20225;-58
2022/04/10 04:02:53;;;;;;;5.30;2.83;;;4.00;99.90;;;;;;5053415;28;20209;-58
2022/04/10 04:05:20;;;;;;;6.73;3.27;;;4.00;99.90;;;;;;5053444;28;20669;-58
2022/04/10 04:07:47;;;;;;;7.53;3.47;;;4.00;99.90;;;;;;5053099;28;20206;-57
2022/04/10 04:10:13;;;;;;;4.67;3.13;;;4.00;99.90;;;;;;5053168;28;20229;-59
2022/04/10 04:12:40;;;;;;;5.17;3.27;;;3.90;99.90;;;;;;5052947;28;20263;-58
2022/04/10 04:15:11;;;;;;;6.87;3.40;;;3.90;99.90;;;;;;5053121;28;20249;-58
2022/04/10 04:17:37;;;;;;;6.77;4.17;;;3.90;99.90;;;;;;5053240;28;20718;-57
2022/04/10 04:20:05;;;;;;;5.67;3.17;;;3.90;99.90;;;;;;5053132;28;20287;-59
2022/04/10 04:22:32;;;;;;;4.73;3.23;;;3.90;99.90;;;;;;5053511;28;20251;-57
2022/04/10 04:24:59;;;;;;;5.90;3.53;;;3.90;99.90;;;;;;5052895;28;20674;-58
2022/04/10 04:27:25;;;;;;;8.40;4.40;;;4.00;99.90;;;;;;5052929;28;20263;-58
2022/04/10 04:29:52;;;;;;;5.20;3.50;;;4.00;99.90;;;;;;5052708;28;20271;-57
2022/04/10 04:32:20;;;;;;;5.83;3.47;;;4.10;99.90;;;;;;5052800;28;20267;-58
2022/04/10 04:34:48;;;;;;;5.50;3.80;;;4.10;99.90;;;;;;5053031;28;20202;-58
2022/04/10 04:37:15;;;;;;;5.40;3.70;;;4.10;99.90;;;;;;5052728;28;20316;-58
2022/04/10 04:39:41;;;;;;;5.77;3.77;;;4.20;99.90;;;;;;5052629;28;20225;-58
2022/04/10 04:42:09;;;;;;;6.40;4.07;;;4.30;99.90;;;;;;5052754;28;20209;-58
2022/04/10 04:44:35;;;;;;;9.43;4.93;;;4.40;99.90;;;;;;5052516;28;20308;-61
2022/04/10 04:47:02;;;;;;;7.77;3.90;;;4.50;99.90;;;;;;5051939;28;20205;-58
2022/04/10 04:49:30;;;;;;;6.60;4.03;;;4.60;99.90;;;;;;5052604;28;20213;-58
2022/04/10 04:51:57;;;;;;;8.50;5.27;;;4.80;99.90;;;;;;5052367;28;20210;-59
2022/04/10 04:54:24;;;;;;;8.63;4.80;;;4.90;99.90;;;;;;5052462;28;20210;-57
2022/04/10 04:56:50;;;;;;;6.83;4.80;;;5.00;99.90;;;;;;5052186;28;20221;-57
2022/04/10 04:59:17;;;;;;;6.03;4.40;;;5.10;99.90;;;;;;5052842;28;20216;-58
2022/04/10 05:01:45;;;;;;;6.57;4.13;;;5.30;99.90;;;;;;5052211;28;20721;-59
2022/04/10 05:04:12;;;;;;;7.07;3.97;;;5.40;99.90;;;;;;5052445;28;20206;-58
2022/04/10 05:06:40;;;;;;;8.30;5.23;;;5.50;99.90;;;;;;5052243;28;20209;-58
2022/04/10 05:09:07;;;;;;;12.17;4.97;;;5.60;99.90;;;;;;5052661;28;20201;-58
2022/04/10 05:11:34;;;;;;;7.67;4.83;;;5.60;99.90;;;;;;5052029;28;20243;-58
2022/04/10 05:14:01;;;;;;;5.37;4.30;;;5.60;99.90;;;;;;5052093;28;20214;-58
2022/04/10 05:16:27;;;;;;;6.87;4.10;;;5.60;99.90;;;;;;5052129;28;20228;-57
2022/04/10 05:18:54;;;;;;;5.43;3.77;;;5.70;99.90;;;;;;5052125;28;20283;-58
2022/04/10 05:21:21;;;;;;;5.87;3.60;;;5.70;99.90;;;;;;5052016;28;20231;-58
2022/04/10 05:23:49;;;;;;;5.43;3.67;;;5.70;99.90;;;;;;5051717;28;20210;-57
2022/04/10 05:26:16;;;;;;;5.20;3.20;;;5.70;99.90;;;;;;5051897;28;20213;-58
2022/04/10 05:28:43;;;;;;;7.13;5.43;;;5.70;99.90;;;;;;5052159;28;20209;-58
2022/04/10 05:31:09;;;;;;;9.43;6.50;;;5.70;99.90;;;;;;5052004;28;20275;-58
2022/04/10 05:33:36;;;;;;;8.10;5.90;;;5.80;99.90;;;;;;5051869;28;20328;-58
2022/04/10 05:36:04;;;;;;;4.97;4.17;;;5.80;99.90;;;;;;5051888;28;20263;-58
2022/04/10 05:38:30;;;;;;;5.40;4.00;;;5.80;99.90;;;;;;5051653;28;20225;-58
2022/04/10 05:40:59;;;;;;;5.87;4.47;;;5.90;99.90;;;;;;5051677;28;20241;-58
2022/04/10 05:43:26;;;;;;;5.27;4.03;;;6.10;99.90;;;;;;5051882;28;20297;-57
2022/04/10 05:45:53;;;;;;;4.57;3.27;;;7.20;99.90;;;;;;5052040;28;20202;-58
2022/04/10 05:48:20;;;;;;;6.07;3.23;;;8.70;99.90;;;;;;5051799;28;20563;-57
2022/04/10 05:50:46;;;;;;;4.80;2.87;;;10.40;99.90;;;;;;5051625;28;20774;-58
2022/04/10 05:53:13;;;;;;;4.57;2.80;;;12.00;99.90;;;;;;5051407;28;20209;-59
2022/04/10 05:55:40;;;;;;;5.17;3.03;;;13.50;99.90;;;;;;5051630;28;20628;-57
2022/04/10 05:58:08;;;;;;;4.17;2.77;;;14.70;98.90;;;;;;5053387;28;20225;-64
2022/04/10 06:00:35;;;;;;;4.73;2.93;;;15.50;95.30;;;;;;5055663;28;20739;-59
2022/04/10 06:03:03;;;;;;;4.97;3.23;;;15.10;95.10;;;;;;5055457;28;20213;-60
2022/04/10 06:05:30;;;;;;;6.57;3.33;;;14.90;95.40;;;;;;5055584;28;20229;-58
2022/04/10 06:07:57;;;;;;;5.60;3.37;;;15.30;94.10;;;;;;5055387;28;20665;-59
2022/04/10 06:10:23;;;;;;;6.27;3.43;;;15.50;93.60;;;;;;5055458;28;20713;-59
2022/04/10 06:12:50;;;;;;;5.23;3.63;;;15.90;93.20;;;;;;5055576;28;20209;-58
2022/04/10 06:15:19;;;;;;;9.10;6.23;;;16.40;92.10;;;;;;5055281;28;20680;-59
2022/04/10 06:17:46;;;;;;;11.97;7.53;;;16.10;91.10;;;;;;5055270;28;20648;-58
2022/04/10 06:20:12;;;;;;;3.57;2.60;;;16.10;90.90;;;;;;5055109;28;20705;-59
2022/04/10 06:22:39;;;;;;;4.87;2.57;;;16.60;89.30;;;;;;5055070;28;20739;-59
2022/04/10 06:25:07;;;;;;;4.37;2.73;;;17.30;89.70;;;;;;5055402;28;20213;-59
2022/04/10 06:27:33;;;;;;;5.35;3.42;;;17.90;84.00;;;;;;5055576;28;20285;-60
2022/04/10 06:30:00;;;;;;;3.90;3.10;;;17.60;84.00;;;;;;5055421;28;20308;-59
2022/04/10 06:32:28;;;;;;;5.50;2.77;;;17.00;83.40;;;;;;5054866;28;20209;-59
2022/04/10 06:34:54;;;;;;;5.07;2.60;;;16.20;83.80;;;;;;5054885;28;20213;-61
2022/04/10 06:37:21;;;;;;;3.43;2.40;;;14.70;87.30;;;;;;5055064;28;20221;-59
2022/04/10 06:39:48;;;;;;;3.70;2.50;;;13.10;90.70;;;;;;5055044;28;20233;-59
2022/04/10 06:42:15;;;;;;;3.70;2.53;;;11.40;93.50;;;;;;5054742;28;20213;-58
2022/04/10 06:44:42;;;;;;;4.57;3.03;;;10.60;95.40;;;;;;5054985;28;20201;-59
2022/04/10 06:47:08;;;;;;;4.20;3.50;;;10.70;96.00;;;;;;5054800;28;20279;-59
2022/04/10 06:49:37;;;;;;;7.90;3.50;;;10.90;95.90;;;;;;5054906;28;20213;-59
2022/04/10 06:52:04;;;;;;;3.90;3.07;;;11.00;96.20;;;;;;5054608;28;20205;-58
2022/04/10 06:54:31;;;;;;;4.40;2.90;;;11.00;96.20;;;;;;5054775;28;20212;-59
2022/04/10 06:56:57;;;;;;;4.80;3.03;;;11.00;96.20;;;;;;5054617;28;20226;-59
2022/04/10 06:59:24;;;;;;;4.43;3.00;;;10.90;96.90;;;;;;5054332;28;20217;-58
2022/04/10 07:01:51;;;;;;;4.10;2.87;;;10.90;97.00;;;;;;5054441;28;20205;-60
2022/04/10 07:04:17;;;;;;;4.83;3.30;;;11.00;96.80;;;;;;5053972;28;20216;-60
2022/04/10 07:06:46;;;;;;;5.03;3.00;;;11.00;97.00;;;;;;5054486;28;20209;-58
2022/04/10 07:09:14;;;;;;;4.30;3.10;;;11.10;96.70;;;;;;5053647;28;20569;-59
2022/04/10 07:11:41;;;;;;;4.20;3.00;;;10.80;97.00;;;;;;5054476;28;20317;-59
2022/04/10 07:14:08;;;;;;;6.17;2.97;;;10.60;97.40;;;;;;5054628;28;20731;-58
2022/04/10 07:16:34;;;;;;;6.00;3.20;;;10.20;97.90;;;;;;5054734;28;20206;-60
2022/04/10 07:19:01;;;;;;;3.73;2.73;;;10.30;98.40;;;;;;5054528;28;20229;-60
2022/04/10 07:24:13;;;;;;;5.10;3.80;;;11.10;97.50;;;;;;5054291;28;20204;-58
2022/04/10 07:26:40;;;;;;;4.23;3.10;;;11.50;97.40;;;;;;5054307;28;20581;-58
2022/04/10 07:29:10;;;;;;;7.93;3.23;;;11.90;97.00;;;;;;5054201;28;20270;-58
2022/04/10 07:31:37;;;;;;;3.87;2.87;;;12.20;96.80;;;;;;5054126;28;20716;-59
2022/04/10 07:34:03;;;;;;;4.10;2.60;;;12.70;96.50;;;;;;5053909;28;20210;-59
2022/04/10 07:36:31;;;;;;;5.03;2.93;;;13.00;95.60;;;;;;5054283;28;20583;-59
2022/04/10 07:38:57;;;;;;;6.13;2.53;;;13.00;95.10;;;;;;5055006;28;20229;-59
2022/04/10 07:41:25;;;;;;;4.60;2.70;;;12.60;95.40;;;;;;5054805;28;20355;-58
2022/04/10 07:43:52;;;;;;;5.57;3.00;;;12.80;95.80;;;;;;5054048;28;20213;-57
2022/04/10 07:49:03;;;;;;;7.03;3.33;;;14.10;94.00;;;;;;5053902;28;20196;-57
2022/04/10 07:51:29;;;;;;;4.80;2.90;;;14.60;93.40;;;;;;5053875;28;20235;-57
2022/04/10 07:53:57;;;;;;;4.97;2.80;;;15.00;92.60;;;;;;5053453;28;20206;-57
2022/04/10 07:56:25;;;;;;;4.60;3.47;;;15.20;91.80;;;;;;5053871;28;20213;-58
2022/04/10 07:58:52;;;;;;;3.73;2.67;;;15.50;91.60;;;;;;5053885;28;20576;-57
2022/04/10 08:01:18;;;;;;;7.00;3.00;;;15.80;90.70;;;;;;5053550;28;20577;-57
2022/04/10 08:03:51;;;;;;;5.00;2.80;;;15.90;90.20;;;;;;5053219;28;20631;-58
2022/04/10 08:06:17;;;;;;;3.70;2.57;;;16.10;89.80;;;;;;5053107;28;20673;-57
2022/04/10 08:08:44;;;;;;;3.03;2.60;;;16.30;88.10;;;;;;5053184;28;20252;-57
2022/04/10 08:11:11;;;;;;;5.30;2.97;;;16.10;86.20;;;;;;5053320;28;20283;-57
2022/04/10 08:13:39;;;;;;;4.87;2.70;;;15.80;87.10;;;;;;5053357;28;20213;-57
2022/04/10 08:16:06;;;;;;;3.80;2.73;;;15.80;85.30;;;;;;5053434;28;20255;-58
2022/04/10 08:18:32;;;;;;;5.90;2.80;;;15.80;84.80;;;;;;5050998;28;20599;-58
2022/04/10 08:20:59;;;;;;;9.67;2.97;;;15.90;84.20;;;;;;5050605;28;20649;-63
2022/04/10 08:23:26;;;;;;;4.65;2.47;;;15.80;84.00;;;;;;5052785;28;20443;-61
2022/04/10 08:25:52;;;;;;;8.63;2.77;;;15.70;82.10;;;;;;5053191;28;20251;-59
2022/04/10 08:28:19;;;;;;;5.63;2.47;;;15.80;79.10;;;;;;5052761;28;20212;-60
2022/04/10 08:30:47;;;;;;;4.17;2.30;;;15.70;80.20;;;;;;5052192;28;20575;-59
2022/04/10 08:33:13;;;;;;;4.63;2.60;;;15.40;81.10;;;;;;5052428;28;20669;-59
2022/04/10 08:35:40;;;;;;;4.30;2.80;;;15.20;81.60;;;;;;5052355;28;20303;-58
2022/04/10 08:38:07;;;;;;;3.20;2.40;;;15.10;80.40;;;;;;5052738;28;20252;-59
2022/04/10 08:40:34;;;;;;;7.17;2.90;;;14.90;80.60;;;;;;5052196;28;20302;-61
2022/04/10 08:43:02;;;;;;;5.40;2.50;;;15.10;81.30;;;;;;5052264;28;20637;-59
2022/04/10 08:45:29;;;;;;;3.83;2.57;;;15.10;81.50;;;;;;5051248;28;20209;-59
2022/04/10 08:47:57;;;;;;;5.57;2.50;;;15.30;80.40;;;;;;5052504;28;20217;-59
2022/04/10 08:50:26;;;;;;;3.83;2.30;;;15.40;78.70;;;;;;5053056;28;20275;-57
2022/04/10 08:52:56;;;;;;;4.60;2.07;;;15.10;78.90;;;;;;5047258;28;20612;-57
2022/04/10 08:55:23;;;;;;;5.10;2.27;;;14.90;78.60;;;;;;5050034;28;20209;-57
2022/04/10 08:57:50;;;;;;;4.40;2.63;;;15.00;78.10;;;;;;5051634;28;20221;-57
2022/04/10 09:00:19;;;;;;;5.50;2.30;;;15.00;78.50;;;;;;5052572;28;20229;-58
2022/04/10 09:02:50;;;;;;;4.70;2.60;;;15.00;79.40;;;;;;5052200;28;20221;-54
2022/04/10 09:05:19;;;;;;;6.27;2.57;;;15.00;80.00;;;;;;5052293;28;20210;-55
2022/04/10 09:08:07;;;;;;;4.70;2.60;;;15.20;78.30;;;;;;5052466;28;20209;-53
2022/04/10 09:10:56;;;;;;;4.27;2.80;;;15.30;78.50;;;;;;5052282;28;20225;-54
2022/04/10 09:13:28;;;;;;;4.93;2.90;;;15.40;79.00;;;;;;5052359;28;20217;-54
2022/04/10 09:16:10;;;;;;;4.03;2.50;;;14.90;78.20;;;;;;5052464;28;20268;-55
2022/04/10 09:18:54;;;;;;;3.23;2.60;;;14.30;80.10;;;;;;5052007;28;20236;-54
2022/04/10 09:21:25;;;;;;;4.33;2.80;;;14.30;81.30;;;;;;5052252;28;20233;-55
2022/04/10 09:23:57;;;;;;;6.47;2.73;;;14.50;80.70;;;;;;5051882;28;20665;-54
2022/04/10 09:26:24;;;;;;;4.30;2.60;;;14.50;80.90;;;;;;5052113;28;20335;-53
2022/04/10 09:28:52;;;;;;;5.33;2.73;;;14.70;81.80;;;;;;5052065;28;20205;-54
2022/04/10 09:31:32;;;;;;;5.17;2.90;;;15.10;80.10;;;;;;5051973;28;20230;-54
2022/04/10 09:34:01;;;;;;;5.43;2.90;;;15.40;80.70;;;;;;5051473;28;20283;-54
2022/04/10 09:36:41;;;;;;;5.57;2.70;;;15.50;80.10;;;;;;5052233;28;20209;-54
2022/04/10 09:39:10;;;;;;;4.57;3.40;;;15.70;81.00;;;;;;5052048;28;20225;-55
2022/04/10 09:41:38;;;;;;;3.30;3.00;;;16.00;80.20;;;;;;5052031;28;20253;-54
2022/04/10 09:44:20;;;;;;;4.00;3.00;;;16.10;78.40;;;;;;5051888;28;20209;-55
2022/04/10 09:46:58;;;;;;;5.43;3.53;;;16.00;79.90;;;;;;5052298;28;20213;-57
2022/04/10 09:49:30;;;;;;;3.90;2.60;;;15.50;78.50;;;;;;5051940;28;20252;-53
2022/04/10 09:52:04;;;;;;;5.17;3.20;;;15.10;80.10;;;;;;5052192;28;20232;-53
2022/04/10 09:54:34;;;;;;;3.77;2.57;;;14.90;80.50;;;;;;5051639;28;20213;-54
2022/04/10 09:57:04;;;;;;;5.37;3.07;;;14.70;82.10;;;;;;5051956;28;20247;-53
2022/04/10 09:59:36;;;;;;;5.40;2.90;;;14.70;83.30;;;;;;5051760;28;20253;-54
2022/04/10 10:02:05;;;;;;;5.73;2.83;;;14.60;81.50;;;;;;5051840;28;20213;-55
2022/04/10 10:04:35;;;;;;;5.53;3.30;;;14.90;81.30;;;;;;5051569;28;20650;-54
2022/04/10 10:07:05;;;;;;;8.07;2.80;;;15.00;81.40;;;;;;5051537;28;20214;-54
2022/04/10 10:09:33;;;;;;;4.87;2.90;;;15.00;82.00;;;;;;5051318;28;20259;-54
2022/04/10 10:12:01;;;;;;;10.10;7.43;;;14.80;81.70;;;;;;5051409;28;20212;-54
2022/04/10 10:14:30;;;;;;;3.83;2.83;;;14.50;83.00;;;;;;5051463;28;20213;-54
2022/04/10 10:16:58;;;;;;;5.47;3.70;;;14.40;82.30;;;;;;5051383;28;20254;-55
2022/04/10 10:19:25;;;;;;;5.27;3.30;;;14.00;82.80;;;;;;5051289;28;20316;-65
2022/04/10 10:21:53;;;;;;;4.60;3.47;;;13.60;84.50;;;;;;5051384;28;20214;-56
2022/04/10 10:24:24;;;;;;;5.40;3.30;;;12.90;86.50;;;;;;5051320;28;20300;-55
2022/04/10 10:27:08;;;;;;;7.03;3.00;;;12.30;88.60;;;;;;5051327;28;20206;-57
2022/04/10 10:29:53;;;;;;;5.80;3.00;;;11.90;88.60;;;;;;5051211;28;20688;-56
2022/04/10 10:32:33;;;;;;;5.50;3.27;;;11.30;93.50;;;;;;5051124;28;20213;-56
2022/04/10 10:34:59;;;;;;;6.07;3.20;;;10.30;97.80;;;;;;5051378;28;20710;-55
2022/04/10 10:37:30;;;;;;;5.77;3.50;;;9.80;99.30;;;;;;5051409;28;20206;-55
2022/04/10 10:39:59;;;;;;;3.90;3.10;;;9.70;99.90;;;;;;5051242;28;20230;-55
2022/04/10 10:42:26;;;;;;;4.33;3.17;;;9.80;99.90;;;;;;5050880;28;20268;-61
2022/04/10 10:44:52;;;;;;;4.53;3.13;;;9.90;99.90;;;;;;5052045;28;20206;-55
2022/04/10 10:47:23;;;;;;;3.80;3.17;;;9.90;99.90;;;;;;5054496;28;20699;-56
2022/04/10 10:49:51;;;;;;;4.57;3.33;;;10.20;99.90;;;;;;5054588;28;20283;-55
2022/04/10 10:52:18;;;;;;;4.30;3.23;;;10.60;99.90;;;;;;5054692;28;20206;-55
2022/04/10 10:54:50;;;;;;;5.73;3.33;;;10.90;99.90;;;;;;5054422;28;20205;-57
2022/04/10 10:57:38;;;;;;;6.60;2.83;;;11.10;99.90;;;;;;5054619;28;20701;-57
2022/04/10 11:00:17;;;;;;;4.80;3.03;;;11.20;99.90;;;;;;5054723;28;20237;-55
2022/04/10 11:02:49;;;;;;;3.77;2.80;;;11.40;99.90;;;;;;5054229;28;20205;-57
2022/04/10 11:05:31;;;;;;;3.97;2.90;;;11.70;99.90;;;;;;5055085;28;20205;-55
2022/04/10 11:07:59;;;;;;;4.57;3.10;;;11.70;98.90;;;;;;5054445;28;20213;-56
2022/04/10 11:10:28;;;;;;;4.30;3.40;;;11.60;99.10;;;;;;5054379;28;20311;-57
2022/04/10 11:13:01;;;;;;;3.90;3.07;;;11.50;99.00;;;;;;5054107;28;20216;-55
2022/04/10 11:15:31;;;;;;;5.73;3.80;;;11.60;98.80;;;;;;5054165;28;20210;-56
2022/04/10 11:18:18;;;;;;;5.90;3.43;;;11.70;99.30;;;;;;5054293;28;20275;-55
2022/04/10 11:20:53;;;;;;;4.17;3.13;;;11.80;98.90;;;;;;5054284;28;20229;-55
2022/04/10 11:23:20;;;;;;;4.97;3.50;;;12.00;99.50;;;;;;5053918;28;20392;-56
2022/04/10 11:25:52;;;;;;;5.13;3.67;;;12.20;98.40;;;;;;5054194;28;20216;-56
2022/04/10 11:28:23;;;;;;;6.90;4.50;;;12.20;97.90;;;;;;5054018;28;20202;-56
2022/04/10 11:30:50;;;;;;;5.03;3.50;;;12.20;98.50;;;;;;5054288;28;20522;-55
2022/04/10 11:33:17;;;;;;;5.87;3.83;;;12.30;99.30;;;;;;5053930;28;20202;-55
2022/04/10 11:35:55;;;;;;;6.47;3.57;;;12.40;98.50;;;;;;5053766;28;20269;-55
2022/04/10 11:38:25;;;;;;;4.13;3.20;;;12.50;97.40;;;;;;5053689;28;20229;-55
2022/04/10 11:40:54;;;;;;;5.60;4.17;;;12.50;95.90;;;;;;5053585;28;20241;-54
2022/04/10 11:43:23;;;;;;;7.00;4.10;;;12.60;96.50;;;;;;5053743;28;20210;-55
2022/04/10 11:45:53;;;;;;;6.03;3.70;;;12.70;95.40;;;;;;5056721;28;20640;-55
2022/04/10 11:48:20;;;;;;;6.87;3.90;;;12.80;95.30;;;;;;5055140;28;20289;-55
2022/04/10 11:50:47;;;;;;;5.30;3.40;;;12.90;96.50;;;;;;5053699;28;20225;-55
2022/04/10 11:53:14;;;;;;;5.10;3.37;;;13.10;96.40;;;;;;5053388;28;20665;-54
2022/04/10 11:55:44;;;;;;;4.67;3.40;;;13.30;95.10;;;;;;5053099;28;20216;-56
2022/04/10 11:58:16;;;;;;;7.23;4.50;;;13.20;95.70;;;;;;5053441;28;20200;-55
2022/04/10 12:00:47;;;;;;;5.07;4.40;;;13.00;95.60;;;;;;5053461;28;20321;-56
2022/04/10 12:03:14;;;;;;;9.23;5.27;;;13.00;96.80;;;;;;5053333;28;20635;-55
2022/04/10 12:05:40;;;;;;;4.70;3.40;;;13.30;95.90;;;;;;5053333;28;20209;-55
2022/04/10 12:08:08;;;;;;;4.30;3.40;;;13.60;95.50;;;;;;5053039;28;20258;-57
2022/04/10 12:10:34;;;;;;;3.30;2.87;;;13.70;93.60;;;;;;5053233;28;20222;-56
2022/04/10 12:13:03;;;;;;;8.37;3.73;;;13.60;93.40;;;;;;5053172;28;20210;-55
2022/04/10 12:15:32;;;;;;;6.10;3.50;;;13.50;94.60;;;;;;5052952;28;20297;-55
2022/04/10 12:18:09;;;;;;;9.43;3.70;;;13.60;94.40;;;;;;5052997;28;20211;-55
2022/04/10 12:20:36;;;;;;;3.80;2.90;;;13.90;95.20;;;;;;5052680;28;20233;-57
2022/04/10 12:23:16;;;;;;;3.37;2.37;;;13.90;94.70;;;;;;5052503;28;20206;-55
2022/04/10 12:25:43;;;;;;;2.43;2.13;;;13.80;95.20;;;;;;5053211;28;20244;-55
2022/04/10 12:28:10;;;;;;;2.73;1.90;;;13.40;96.30;;;;;;5052796;28;20210;-56
2022/04/10 12:30:38;;;;;;;3.13;2.20;;;13.00;95.60;;;;;;5052894;28;20235;-55
2022/04/10 12:33:06;;;;;;;2.23;1.80;;;12.40;95.90;;;;;;5052428;28;20231;-56
2022/04/10 12:35:37;;;;;;;2.43;1.77;;;11.60;99.50;;;;;;5052891;28;20202;-55
2022/04/10 12:38:03;;;;;;;2.77;2.13;;;10.90;98.70;;;;;;5052965;28;20447;-55
2022/04/10 12:40:30;;;;;;;2.57;2.33;;;10.50;99.30;;;;;;5052391;28;20237;-55
2022/04/10 12:42:59;;;;;;;3.67;1.83;;;10.40;99.90;;;;;;5052341;28;20206;-56
2022/04/10 12:45:28;;;;;;;2.27;2.00;;;10.50;98.30;;;;;;5052647;28;20474;-55
2022/04/10 12:47:55;;;;;;;3.77;2.10;;;10.70;96.40;;;;;;5052503;28;20205;-55
2022/04/10 12:50:25;;;;;;;2.50;2.10;;;11.30;97.40;;;;;;5052518;28;20370;-55
2022/04/10 12:52:55;;;;;;;3.67;2.50;;;12.00;97.40;;;;;;5052370;28;20209;-56
2022/04/10 12:55:23;;;;;;;4.77;2.40;;;12.20;99.80;;;;;;5052516;28;20657;-56
2022/04/10 12:58:00;;;;;;;4.47;2.30;;;12.30;97.70;;;;;;5052797;28;20201;-56
2022/04/10 13:00:30;;;;;;;2.93;2.57;;;12.30;96.50;;;;;;5052245;28;20236;-57
2022/04/10 13:02:58;;;;;;;3.20;2.00;;;12.00;96.20;;;;;;5052155;28;20673;-55